Terminal Aerodrome Forecast
Issued by NWS

Home | Current Version | Previous Version | Text Only | Print | Product List | Glossary On
Versions: 1 2 3 4 5 6 7 8 9 10 11 12 13 14 15 16 17
000
FTUS43 KICT 021100
TAFCNU
TAF
KCNU 021138Z 0212/0312 VRB05KT P6SM SCT015
      TEMPO 0212/0215 BKN009
     FM021600 17008KT P6SM SCT035
     FM022200 13008KT P6SM VCTS SCT035CB BKN060
     FM030800 13010KT P6SM VCTS BKN025 OVC050CB=

USA.gov is the U.S. government's official web portal to all federal, state and local government web resources and services.